createdAt,value
2019-02-28T00:00:59.100Z,7.90
2019-02-28T00:03:27.296Z,7.90
2019-02-28T00:05:55.178Z,7.80
2019-02-28T00:08:22.853Z,7.60
2019-02-28T00:10:50.526Z,7.50
2019-02-28T00:13:21.460Z,7.50
2019-02-28T00:15:47.750Z,7.60
2019-02-28T00:18:16.604Z,7.40
2019-02-28T00:20:44.421Z,7.40
2019-02-28T00:23:12.329Z,7.40
2019-02-28T00:25:39.996Z,7.20
2019-02-28T00:28:07.656Z,7.20
2019-02-28T00:30:37.392Z,7.20
2019-02-28T00:33:04.937Z,7.10
2019-02-28T00:35:32.674Z,7.00
2019-02-28T00:38:00.629Z,6.90
2019-02-28T00:40:28.286Z,7.10
2019-02-28T00:42:55.992Z,7.10
2019-02-28T00:45:23.736Z,7.20
2019-02-28T00:47:51.351Z,7.10
2019-02-28T00:50:19.034Z,7.00
2019-02-28T00:52:46.764Z,6.90
2019-02-28T00:55:15.319Z,6.90
2019-02-28T00:57:43.283Z,6.80
2019-02-28T01:00:11.952Z,6.90
2019-02-28T01:02:39.748Z,7.00
2019-02-28T01:05:07.625Z,7.10
2019-02-28T01:07:35.338Z,7.30
2019-02-28T01:10:05.318Z,7.40
2019-02-28T01:12:33.134Z,7.50
2019-02-28T01:15:00.975Z,7.60
2019-02-28T01:17:29.757Z,7.70
2019-02-28T01:19:57.413Z,7.80
2019-02-28T01:22:26.847Z,7.80
2019-02-28T01:24:54.698Z,7.80
2019-02-28T01:27:22.546Z,7.90
2019-02-28T01:29:50.214Z,7.90
2019-02-28T01:32:17.827Z,8.00
2019-02-28T01:34:45.566Z,8.10
2019-02-28T01:37:13.164Z,8.10
2019-02-28T01:39:40.805Z,8.10
2019-02-28T01:42:08.434Z,8.10
2019-02-28T01:44:36.533Z,7.90
2019-02-28T01:47:04.171Z,7.80
2019-02-28T01:49:31.847Z,7.80
2019-02-28T01:51:59.497Z,7.70
2019-02-28T01:54:28.497Z,7.70
2019-02-28T01:56:56.144Z,7.70
2019-02-28T01:59:23.758Z,7.80
2019-02-28T02:01:51.374Z,7.90
2019-02-28T02:04:18.981Z,7.90
2019-02-28T02:06:46.952Z,7.90
2019-02-28T02:09:14.696Z,7.90
2019-02-28T02:11:42.304Z,7.90
2019-02-28T02:14:10.963Z,7.90
2019-02-28T02:16:39.780Z,7.70
2019-02-28T02:19:07.417Z,7.50
2019-02-28T02:21:35.658Z,7.30
2019-02-28T02:24:03.300Z,7.10
2019-02-28T02:26:30.983Z,6.90
2019-02-28T02:29:01.167Z,6.90
2019-02-28T02:31:29.169Z,6.90
2019-02-28T02:33:56.990Z,6.80
2019-02-28T02:36:24.866Z,6.80
2019-02-28T02:38:52.512Z,6.90
2019-02-28T02:41:20.347Z,6.70
2019-02-28T02:43:49.079Z,6.70
2019-02-28T02:46:20.181Z,6.80
2019-02-28T02:48:48.504Z,6.70
2019-02-28T02:51:16.179Z,6.90
2019-02-28T02:53:43.887Z,6.90
2019-02-28T02:56:11.549Z,7.00
2019-02-28T02:58:39.166Z,7.10
2019-02-28T03:01:06.826Z,7.10
2019-02-28T03:03:34.430Z,7.20
2019-02-28T03:06:02.973Z,7.20
2019-02-28T03:08:35.660Z,7.20
2019-02-28T03:11:00.212Z,7.20
2019-02-28T03:13:28.140Z,7.20
2019-02-28T03:15:59.238Z,7.30
2019-02-28T03:18:25.501Z,7.30
2019-02-28T03:20:53.418Z,7.30
2019-02-28T03:23:21.117Z,7.30
2019-02-28T03:25:48.871Z,7.30
2019-02-28T03:28:16.794Z,7.30
2019-02-28T03:30:44.449Z,7.30
2019-02-28T03:33:23.423Z,7.30
2019-02-28T03:35:44.192Z,7.30
2019-02-28T03:38:12.709Z,7.40
2019-02-28T03:40:41.258Z,7.40
2019-02-28T03:43:09.203Z,7.30
2019-02-28T03:45:36.848Z,7.30
2019-02-28T03:48:04.501Z,7.40
2019-02-28T03:50:32.141Z,7.40
2019-02-28T03:53:00.162Z,7.50
2019-02-28T03:55:28.044Z,7.50
2019-02-28T03:57:55.718Z,7.50
2019-02-28T04:00:23.569Z,7.50
2019-02-28T04:02:56.663Z,7.50
2019-02-28T04:05:26.785Z,7.50
2019-02-28T04:07:53.691Z,7.60
2019-02-28T04:10:21.777Z,7.60
2019-02-28T04:12:49.605Z,7.60
2019-02-28T04:15:17.323Z,7.50
2019-02-28T04:17:44.997Z,7.50
2019-02-28T04:20:12.662Z,7.40
2019-02-28T04:22:40.443Z,7.40
2019-02-28T04:25:08.081Z,7.40
2019-02-28T04:27:40.488Z,7.40
2019-02-28T04:30:07.972Z,7.40
2019-02-28T04:32:35.451Z,7.30
2019-02-28T04:35:06.043Z,7.30
2019-02-28T04:37:33.699Z,7.30
2019-02-28T04:40:01.385Z,7.30
2019-02-28T04:42:29.029Z,7.30
2019-02-28T04:44:56.689Z,7.30
2019-02-28T04:47:25.329Z,7.30
2019-02-28T04:49:56.913Z,7.30
2019-02-28T04:52:23.564Z,7.30
2019-02-28T04:54:51.204Z,7.40
2019-02-28T04:57:20.793Z,7.50
2019-02-28T04:59:48.450Z,7.60
2019-02-28T05:02:19.758Z,7.70
2019-02-28T05:04:45.685Z,7.70
2019-02-28T05:07:13.397Z,7.80
2019-02-28T05:09:41.064Z,7.80
2019-02-28T05:12:08.713Z,7.70
2019-02-28T05:14:36.358Z,7.70
2019-02-28T05:17:04.097Z,7.70
2019-02-28T05:19:32.378Z,7.80
2019-02-28T05:22:02.397Z,7.80
2019-02-28T05:24:30.173Z,7.80
2019-02-28T05:27:00.121Z,7.80
2019-02-28T05:29:27.320Z,7.90
2019-02-28T05:31:55.022Z,7.80
2019-02-28T05:34:22.661Z,7.80
2019-02-28T05:36:50.325Z,7.70
2019-02-28T05:39:17.988Z,7.70
2019-02-28T05:41:48.982Z,7.70
2019-02-28T05:44:15.192Z,7.70
2019-02-28T05:46:42.858Z,7.70
2019-02-28T05:49:10.611Z,7.70
2019-02-28T05:51:38.233Z,7.70
2019-02-28T05:54:05.894Z,7.60
2019-02-28T05:56:34.086Z,7.50
2019-02-28T05:59:01.938Z,7.50
2019-02-28T06:01:29.786Z,7.50
2019-02-28T06:03:57.417Z,7.50
2019-02-28T06:06:25.081Z,7.40
2019-02-28T06:08:53.863Z,7.30
2019-02-28T06:11:21.536Z,7.20
2019-02-28T06:13:49.605Z,7.20
2019-02-28T06:16:18.762Z,7.10
2019-02-28T06:18:46.413Z,7.10
2019-02-28T06:21:14.170Z,7.10
2019-02-28T06:23:41.900Z,7.00
2019-02-28T06:26:09.565Z,7.00
2019-02-28T06:28:37.188Z,7.00
2019-02-28T06:31:04.858Z,7.00
2019-02-28T06:33:33.567Z,7.00
2019-02-28T06:36:04.552Z,7.00
2019-02-28T06:38:32.377Z,7.00
2019-02-28T06:41:00.045Z,7.00
2019-02-28T06:43:27.824Z,7.00
2019-02-28T06:45:55.552Z,7.00
2019-02-28T06:48:25.941Z,7.00
2019-02-28T06:50:52.737Z,7.00
2019-02-28T06:53:20.354Z,7.00
2019-02-28T06:55:48.014Z,7.00
2019-02-28T06:58:16.657Z,7.10
2019-02-28T07:00:47.407Z,7.10
2019-02-28T07:03:14.178Z,7.10
2019-02-28T07:05:41.970Z,7.20
2019-02-28T07:08:09.597Z,7.20
2019-02-28T07:10:37.278Z,7.30
2019-02-28T07:13:05.634Z,7.50
2019-02-28T07:15:33.384Z,7.50
2019-02-28T07:18:01.285Z,7.60
2019-02-28T07:20:28.958Z,7.60
2019-02-28T07:22:56.717Z,7.70
2019-02-28T07:25:24.399Z,7.80
2019-02-28T07:27:52.136Z,8.00
2019-02-28T07:30:19.809Z,8.20
2019-02-28T07:32:47.621Z,8.30
2019-02-28T07:35:15.274Z,8.40
2019-02-28T07:37:42.952Z,8.50
2019-02-28T07:40:15.510Z,8.60
2019-02-28T07:42:40.681Z,8.70
2019-02-28T07:45:09.171Z,8.80
2019-02-28T07:47:36.811Z,8.80
2019-02-28T07:50:07.664Z,8.80
2019-02-28T07:52:34.958Z,8.80
2019-02-28T07:55:02.807Z,9.00
2019-02-28T07:57:30.496Z,9.10
2019-02-28T07:59:59.924Z,9.30
2019-02-28T08:02:28.054Z,9.30
2019-02-28T08:04:55.882Z,9.30
2019-02-28T08:07:23.687Z,9.60
2019-02-28T08:09:51.321Z,9.90
2019-02-28T08:12:18.988Z,10.10
2019-02-28T08:14:47.111Z,10.40
2019-02-28T08:17:15.621Z,10.60
2019-02-28T08:19:43.340Z,11.00
2019-02-28T08:22:11.161Z,11.40
2019-02-28T08:24:38.877Z,11.70
2019-02-28T08:27:06.598Z,12.00
2019-02-28T08:29:34.298Z,12.20
2019-02-28T08:32:06.727Z,12.30
2019-02-28T08:34:31.587Z,12.50
2019-02-28T08:36:59.246Z,12.70
2019-02-28T08:39:26.934Z,12.90
2019-02-28T08:42:03.025Z,13.20
2019-02-28T08:44:24.237Z,13.40
2019-02-28T08:46:51.889Z,13.80
2019-02-28T08:49:19.552Z,14.00
2019-02-28T08:51:48.458Z,14.20
2019-02-28T08:54:17.893Z,14.40
2019-02-28T08:56:46.263Z,14.40
2019-02-28T08:59:18.222Z,14.50
2019-02-28T09:01:44.894Z,14.60
2019-02-28T09:04:12.786Z,14.60
2019-02-28T09:06:41.023Z,14.60
2019-02-28T09:09:11.013Z,14.80
2019-02-28T09:11:38.965Z,14.70
2019-02-28T09:14:06.630Z,14.80
2019-02-28T09:16:36.707Z,14.90
2019-02-28T09:19:05.409Z,15.00
2019-02-28T09:21:34.180Z,15.10
2019-02-28T09:24:02.204Z,15.00
2019-02-28T09:26:31.216Z,15.00
2019-02-28T09:28:59.973Z,15.10
2019-02-28T09:31:27.853Z,15.30
2019-02-28T09:33:58.938Z,15.40
2019-02-28T09:36:25.467Z,15.50
2019-02-28T09:38:57.080Z,15.60
2019-02-28T09:41:27.061Z,15.60
2019-02-28T09:43:56.903Z,15.60
2019-02-28T09:46:24.350Z,15.80
2019-02-28T09:48:53.153Z,15.80
2019-02-28T09:51:20.923Z,15.90
2019-02-28T09:53:50.244Z,16.00
2019-02-28T09:56:30.851Z,16.10
2019-02-28T09:59:00.260Z,16.20
2019-02-28T10:01:35.461Z,16.40
2019-02-28T10:04:03.802Z,16.40
2019-02-28T10:06:33.183Z,16.40
2019-02-28T10:09:04.613Z,16.40
2019-02-28T10:11:34.809Z,16.30
2019-02-28T10:14:04.906Z,16.40
2019-02-28T10:16:32.586Z,16.40
2019-02-28T10:19:01.257Z,16.50
2019-02-28T10:21:33.321Z,16.50
2019-02-28T10:24:00.437Z,16.50
2019-02-28T10:26:28.202Z,16.60
2019-02-28T10:28:55.859Z,16.60
2019-02-28T10:31:35.197Z,16.80
2019-02-28T10:33:53.414Z,16.80
2019-02-28T10:36:21.109Z,16.90
2019-02-28T10:38:49.903Z,16.90
2019-02-28T10:41:19.396Z,16.90
2019-02-28T10:43:51.481Z,16.90
2019-02-28T10:46:20.023Z,17.10
2019-02-28T10:48:50.811Z,17.10
2019-02-28T10:51:17.207Z,17.20
2019-02-28T10:53:44.881Z,17.30
2019-02-28T10:56:12.702Z,17.30
2019-02-28T10:58:40.353Z,17.30
2019-02-28T11:01:10.077Z,17.20
2019-02-28T11:03:37.741Z,17.20
2019-02-28T11:06:05.676Z,17.30
2019-02-28T11:08:33.370Z,17.50
2019-02-28T11:11:01.190Z,17.70
2019-02-28T11:13:32.183Z,17.70
2019-02-28T11:16:00.205Z,17.60
2019-02-28T11:18:28.002Z,17.50
2019-02-28T11:20:58.203Z,17.30
2019-02-28T11:23:25.324Z,17.20
2019-02-28T11:25:54.021Z,17.20
2019-02-28T11:28:22.136Z,17.20
2019-02-28T11:30:50.153Z,17.30
2019-02-28T11:33:18.219Z,17.40
2019-02-28T11:35:47.225Z,17.50
2019-02-28T11:38:20.373Z,17.70
2019-02-28T11:40:44.710Z,17.60
2019-02-28T11:43:12.488Z,17.60
2019-02-28T11:45:42.413Z,17.80
2019-02-28T11:48:10.545Z,17.90
2019-02-28T11:50:41.344Z,18.20
2019-02-28T11:53:07.897Z,18.20
2019-02-28T11:55:35.708Z,18.30
2019-02-28T11:58:03.652Z,18.40
2019-02-28T12:00:32.524Z,18.50
2019-02-28T12:03:01.328Z,18.40
2019-02-28T12:05:30.081Z,18.60
2019-02-28T12:07:58.977Z,18.80
2019-02-28T12:10:27.142Z,19.00
2019-02-28T12:12:56.424Z,19.10
2019-02-28T12:15:27.840Z,19.10
2019-02-28T12:17:55.601Z,19.00
2019-02-28T12:20:26.400Z,19.00
2019-02-28T12:22:53.154Z,18.90
2019-02-28T12:25:20.925Z,18.80
2019-02-28T12:27:48.571Z,18.70
2019-02-28T12:30:18.847Z,18.80
2019-02-28T12:32:47.810Z,18.90
2019-02-28T12:35:15.597Z,19.00
2019-02-28T12:37:43.312Z,19.20
2019-02-28T12:40:14.001Z,19.20
2019-02-28T12:42:41.925Z,19.30
2019-02-28T12:45:13.713Z,19.40
2019-02-28T12:47:42.189Z,19.50
2019-02-28T12:50:10.871Z,19.50
2019-02-28T12:52:39.114Z,19.30
2019-02-28T12:55:09.318Z,19.20
2019-02-28T12:57:37.182Z,19.30
2019-02-28T13:00:07.111Z,19.20
2019-02-28T13:02:36.301Z,19.30
2019-02-28T13:05:04.441Z,19.40
2019-02-28T13:07:33.905Z,19.50
2019-02-28T13:10:03.902Z,19.50
2019-02-28T13:12:31.663Z,19.70
2019-02-28T13:14:59.345Z,19.80
2019-02-28T13:17:28.359Z,19.70
2019-02-28T13:19:57.606Z,19.60
2019-02-28T13:22:25.452Z,19.70
2019-02-28T13:24:53.137Z,19.70
2019-02-28T13:27:20.782Z,19.60
2019-02-28T13:29:48.484Z,19.70
2019-02-28T13:32:16.136Z,19.80
2019-02-28T13:34:43.789Z,19.90
2019-02-28T13:37:11.577Z,20.10
2019-02-28T13:39:39.283Z,20.10
2019-02-28T13:42:07.067Z,20.10
2019-02-28T13:44:36.446Z,20.10
2019-02-28T13:47:09.354Z,20.10
2019-02-28T13:49:36.002Z,19.90
2019-02-28T13:52:03.464Z,20.00
2019-02-28T13:54:31.235Z,20.00
2019-02-28T13:56:58.885Z,20.00
2019-02-28T13:59:28.498Z,20.10
2019-02-28T14:01:56.199Z,20.10
2019-02-28T14:04:27.048Z,20.10
2019-02-28T14:06:55.864Z,20.30
2019-02-28T14:09:23.369Z,20.30
2019-02-28T14:11:51.947Z,20.30
2019-02-28T14:14:19.895Z,20.30
2019-02-28T14:16:47.660Z,20.30
2019-02-28T14:19:16.763Z,20.20
2019-02-28T14:21:45.393Z,20.10
2019-02-28T14:24:13.112Z,20.10
2019-02-28T14:26:43.019Z,20.20
2019-02-28T14:29:11.623Z,20.10
2019-02-28T14:31:39.464Z,20.10
2019-02-28T14:34:07.112Z,20.10
2019-02-28T14:36:34.845Z,20.20
2019-02-28T14:39:04.784Z,20.20
2019-02-28T14:41:34.961Z,20.20
2019-02-28T14:44:02.625Z,20.20
2019-02-28T14:46:30.315Z,20.20
2019-02-28T14:48:58.067Z,20.00
2019-02-28T14:51:28.650Z,19.80
2019-02-28T14:53:55.333Z,19.80
2019-02-28T14:56:23.032Z,19.70
2019-02-28T14:58:54.473Z,19.60
2019-02-28T15:01:20.565Z,19.80
2019-02-28T15:03:48.438Z,19.90
2019-02-28T15:06:16.162Z,20.00
2019-02-28T15:08:43.985Z,19.90
2019-02-28T15:11:12.658Z,19.70
2019-02-28T15:13:40.902Z,19.70
2019-02-28T15:16:08.679Z,19.80
2019-02-28T15:18:36.350Z,19.70
2019-02-28T15:21:04.489Z,19.70
2019-02-28T15:23:34.196Z,19.70
2019-02-28T15:26:03.942Z,19.80
2019-02-28T15:28:31.814Z,19.70
2019-02-28T15:30:59.537Z,19.60
2019-02-28T15:33:27.491Z,19.50
2019-02-28T15:35:56.809Z,19.40
2019-02-28T15:38:24.499Z,19.20
2019-02-28T15:40:52.250Z,19.00
2019-02-28T15:43:19.917Z,19.10
2019-02-28T15:45:47.665Z,19.20
2019-02-28T15:48:15.414Z,19.00
2019-02-28T15:50:43.076Z,18.70
2019-02-28T15:53:11.353Z,18.60
2019-02-28T15:55:40.550Z,18.60
2019-02-28T15:58:08.454Z,18.60
2019-02-28T16:00:36.361Z,18.50
2019-02-28T16:03:04.512Z,18.30
2019-02-28T16:05:32.226Z,18.20
2019-02-28T16:08:00.050Z,18.10
2019-02-28T16:10:31.889Z,18.10
2019-02-28T16:12:59.550Z,18.00
2019-02-28T16:15:27.282Z,18.00
2019-02-28T16:17:55.226Z,17.90
2019-02-28T16:20:24.942Z,17.90
2019-02-28T16:22:53.215Z,17.80
2019-02-28T16:25:23.534Z,17.90
2019-02-28T16:27:51.331Z,17.90
2019-02-28T16:30:19.118Z,17.90
2019-02-28T16:32:49.136Z,17.80
2019-02-28T16:35:16.475Z,17.90
2019-02-28T16:37:46.094Z,17.70
2019-02-28T16:40:15.125Z,17.50
2019-02-28T16:42:43.491Z,17.30
2019-02-28T16:45:19.908Z,17.40
2019-02-28T16:47:47.723Z,17.30
2019-02-28T16:50:18.729Z,17.30
2019-02-28T16:52:45.061Z,17.10
2019-02-28T16:55:12.876Z,16.90
2019-02-28T16:57:43.518Z,17.00
2019-02-28T17:00:11.052Z,16.90
2019-02-28T17:02:40.588Z,16.80
2019-02-28T17:05:08.477Z,16.80
2019-02-28T17:07:36.194Z,16.70
2019-02-28T17:10:06.512Z,16.60
2019-02-28T17:12:53.987Z,16.50
2019-02-28T17:15:28.545Z,16.30
2019-02-28T17:17:59.786Z,16.20
2019-02-28T17:20:27.806Z,16.20
2019-02-28T17:22:58.617Z,16.10
2019-02-28T17:25:25.270Z,16.00
2019-02-28T17:27:57.957Z,15.90
2019-02-28T17:30:42.758Z,15.80
2019-02-28T17:33:10.457Z,15.80
2019-02-28T17:35:40.990Z,15.80
2019-02-28T17:38:08.809Z,15.70
2019-02-28T17:40:36.628Z,15.70
2019-02-28T17:43:04.834Z,15.60
2019-02-28T17:45:34.057Z,15.60
2019-02-28T17:48:29.263Z,15.50
2019-02-28T17:51:25.006Z,15.70
2019-02-28T17:54:20.847Z,15.70
2019-02-28T17:57:29.392Z,15.60
2019-02-28T18:00:33.317Z,15.70
2019-02-28T18:03:45.059Z,15.60
2019-02-28T18:06:53.741Z,15.60
2019-02-28T18:09:48.211Z,15.50
2019-02-28T18:13:04.330Z,15.60
2019-02-28T18:15:45.987Z,15.40
2019-02-28T18:18:42.588Z,15.30
2019-02-28T18:21:42.647Z,15.20
2019-02-28T18:24:41.119Z,15.30
2019-02-28T18:28:03.116Z,15.20
2019-02-28T18:31:08.201Z,15.00
2019-02-28T18:33:36.969Z,15.10
2019-02-28T18:36:08.454Z,15.00
2019-02-28T18:38:37.879Z,14.90
2019-02-28T18:41:06.645Z,15.00
2019-02-28T18:43:34.421Z,14.90
2019-02-28T18:46:02.366Z,15.00
2019-02-28T18:48:30.131Z,15.00
2019-02-28T18:50:57.921Z,15.00
2019-02-28T18:53:25.608Z,15.20
2019-02-28T18:55:55.885Z,15.40
2019-02-28T18:58:23.770Z,15.30
2019-02-28T19:00:52.664Z,15.20
2019-02-28T19:03:20.290Z,15.30
2019-02-28T19:05:48.008Z,15.20
2019-02-28T19:08:15.789Z,15.20
2019-02-28T19:10:43.529Z,15.20
2019-02-28T19:13:12.186Z,15.30
2019-02-28T19:15:41.181Z,15.20
2019-02-28T19:18:09.024Z,15.20
2019-02-28T19:20:36.798Z,15.20
2019-02-28T19:23:04.572Z,15.20
2019-02-28T19:25:32.245Z,15.10
2019-02-28T19:28:01.989Z,14.90
2019-02-28T19:30:29.553Z,14.80
2019-02-28T19:32:57.248Z,14.70
2019-02-28T19:35:25.067Z,14.60
2019-02-28T19:37:53.831Z,14.70
2019-02-28T19:40:21.553Z,14.70
2019-02-28T19:42:49.226Z,14.70
2019-02-28T19:45:16.990Z,14.70
2019-02-28T19:47:44.698Z,14.60
2019-02-28T19:50:12.394Z,14.50
2019-02-28T19:52:40.045Z,14.50
2019-02-28T19:55:09.237Z,14.70
2019-02-28T19:57:36.915Z,14.80
2019-02-28T20:00:06.269Z,14.70
2019-02-28T20:02:34.046Z,14.70
2019-02-28T20:05:01.683Z,14.50
2019-02-28T20:07:31.300Z,14.40
2019-02-28T20:09:58.994Z,14.40
2019-02-28T20:12:26.798Z,14.40
2019-02-28T20:14:54.588Z,14.50
2019-02-28T20:17:22.301Z,14.50
2019-02-28T20:19:50.015Z,14.50
2019-02-28T20:22:17.717Z,14.30
2019-02-28T20:24:45.526Z,14.20
2019-02-28T20:27:14.293Z,14.10
2019-02-28T20:29:42.070Z,14.00
2019-02-28T20:32:09.829Z,14.00
2019-02-28T20:34:37.505Z,14.00
2019-02-28T20:37:06.157Z,14.10
2019-02-28T20:39:34.057Z,14.00
2019-02-28T20:42:01.794Z,14.00
2019-02-28T20:44:29.603Z,14.10
2019-02-28T20:46:57.353Z,14.00
2019-02-28T20:49:25.057Z,13.90
2019-02-28T20:51:55.428Z,13.70
2019-02-28T20:54:22.301Z,13.60
2019-02-28T20:56:50.064Z,13.50
2019-02-28T20:59:17.908Z,13.60
2019-02-28T21:01:45.682Z,13.60
2019-02-28T21:04:13.372Z,13.40
2019-02-28T21:06:41.171Z,13.50
2019-02-28T21:09:09.637Z,13.50
2019-02-28T21:11:38.545Z,13.60
2019-02-28T21:14:06.384Z,13.70
2019-02-28T21:16:34.303Z,13.80
2019-02-28T21:19:03.447Z,13.90
2019-02-28T21:21:31.556Z,14.00
2019-02-28T21:24:00.774Z,14.00
2019-02-28T21:26:28.645Z,14.00
2019-02-28T21:28:56.322Z,14.00
2019-02-28T21:31:24.002Z,14.10
2019-02-28T21:33:51.811Z,14.10
2019-02-28T21:36:19.746Z,14.10
2019-02-28T21:38:47.618Z,14.00
2019-02-28T21:41:15.394Z,13.90
2019-02-28T21:43:43.177Z,13.90
2019-02-28T21:46:10.977Z,14.00
2019-02-28T21:48:38.639Z,13.90
2019-02-28T21:51:06.301Z,14.10
2019-02-28T21:53:34.211Z,14.00
2019-02-28T21:56:01.902Z,14.00
2019-02-28T21:58:31.222Z,13.80
2019-02-28T22:00:59.218Z,13.70
2019-02-28T22:03:26.994Z,13.60
2019-02-28T22:05:54.768Z,13.70
2019-02-28T22:08:22.445Z,13.60
2019-02-28T22:10:50.086Z,13.70
2019-02-28T22:13:17.861Z,13.60
2019-02-28T22:15:45.565Z,13.70
2019-02-28T22:18:13.243Z,13.70
2019-02-28T22:20:41.051Z,13.70
2019-02-28T22:23:08.758Z,13.70
2019-02-28T22:25:36.444Z,13.80
2019-02-28T22:28:04.199Z,13.90
2019-02-28T22:30:57.240Z,13.80
2019-02-28T22:33:49.316Z,13.80
2019-02-28T22:36:20.342Z,13.70
2019-02-28T22:38:48.033Z,13.70
2019-02-28T22:41:16.764Z,13.70
2019-02-28T22:43:44.480Z,13.60
2019-02-28T22:46:15.179Z,13.60
2019-02-28T22:48:42.962Z,13.60
2019-02-28T22:51:10.685Z,13.70
2019-02-28T22:53:38.576Z,13.60
2019-02-28T22:56:06.245Z,13.40
2019-02-28T22:58:33.913Z,13.30
2019-02-28T23:01:09.263Z,13.00
2019-02-28T23:03:37.604Z,12.70
2019-02-28T23:06:05.652Z,12.50
2019-02-28T23:08:33.347Z,12.30
2019-02-28T23:11:01.906Z,12.40
2019-02-28T23:13:29.752Z,12.40
2019-02-28T23:15:57.402Z,12.30
2019-02-28T23:18:25.173Z,12.20
2019-02-28T23:20:52.906Z,12.30
2019-02-28T23:23:20.634Z,12.40
2019-02-28T23:25:48.286Z,12.40
2019-02-28T23:28:26.930Z,12.40
2019-02-28T23:31:34.940Z,12.20
2019-02-28T23:34:07.295Z,12.10
2019-02-28T23:36:34.984Z,11.90
2019-02-28T23:39:04.357Z,11.70
2019-02-28T23:41:34.018Z,11.70
2019-02-28T23:44:01.845Z,11.50
2019-02-28T23:46:29.563Z,11.40
2019-02-28T23:48:57.325Z,11.40
2019-02-28T23:51:25.036Z,11.30
2019-02-28T23:53:52.701Z,11.20
2019-02-28T23:56:20.378Z,11.30
2019-02-28T23:58:48.088Z,11.40
